createdAt,value
2019-02-22T00:01:20.231Z,22.63
2019-02-22T00:03:47.639Z,24.77
2019-02-22T00:06:15.079Z,20.07
2019-02-22T00:08:42.545Z,16.40
2019-02-22T00:11:09.942Z,22.30
2019-02-22T00:13:37.324Z,18.97
2019-02-22T00:16:04.939Z,21.23
2019-02-22T00:18:32.346Z,22.40
2019-02-22T00:20:59.757Z,22.97
2019-02-22T00:23:27.199Z,27.60
2019-02-22T00:25:54.751Z,22.53
2019-02-22T00:28:22.145Z,22.20
2019-02-22T00:30:49.914Z,19.63
2019-02-22T00:33:17.316Z,20.93
2019-02-22T00:35:46.444Z,19.87
2019-02-22T00:38:14.245Z,18.20
2019-02-22T00:40:41.668Z,22.80
2019-02-22T00:43:09.060Z,22.77
2019-02-22T00:45:36.509Z,19.53
2019-02-22T00:48:03.897Z,20.53
2019-02-22T00:50:31.291Z,17.73
2019-02-22T00:52:58.813Z,17.30
2019-02-22T00:55:26.220Z,15.43
2019-02-22T00:57:53.628Z,19.23
2019-02-22T01:00:21.315Z,19.80
2019-02-22T01:02:48.708Z,18.80
2019-02-22T01:05:16.120Z,18.60
2019-02-22T01:07:43.573Z,20.30
2019-02-22T01:10:10.962Z,19.50
2019-02-22T01:12:38.386Z,24.60
2019-02-22T01:15:06.085Z,23.40
2019-02-22T01:17:33.482Z,21.37
2019-02-22T01:20:00.878Z,23.00
2019-02-22T01:22:28.469Z,22.70
2019-02-22T01:24:56.047Z,20.27
2019-02-22T01:27:23.975Z,21.60
2019-02-22T01:29:51.427Z,17.27
2019-02-22T01:32:18.804Z,20.20
2019-02-22T01:34:46.204Z,17.60
2019-02-22T01:37:13.652Z,21.00
2019-02-22T01:39:41.056Z,25.90
2019-02-22T01:42:08.479Z,23.70
2019-02-22T01:44:35.933Z,22.93
2019-02-22T01:47:03.334Z,19.63
2019-02-22T01:49:30.726Z,20.83
2019-02-22T01:51:58.532Z,16.80
2019-02-22T01:54:25.927Z,20.50
2019-02-22T01:56:53.355Z,20.37
2019-02-22T01:59:20.922Z,16.97
2019-02-22T02:01:48.334Z,21.50
2019-02-22T02:04:15.738Z,20.73
2019-02-22T02:06:43.303Z,17.63
2019-02-22T02:09:10.711Z,16.73
2019-02-22T02:11:38.105Z,18.77
2019-02-22T02:14:05.540Z,20.53
2019-02-22T02:16:32.944Z,16.40
2019-02-22T02:19:00.359Z,16.30
2019-02-22T02:21:27.831Z,15.97
2019-02-22T02:23:55.478Z,19.50
2019-02-22T02:26:23.459Z,19.23
2019-02-22T02:28:51.713Z,18.80
2019-02-22T02:31:19.227Z,15.50
2019-02-22T02:33:46.628Z,18.97
2019-02-22T02:36:14.079Z,20.07
2019-02-22T02:38:41.487Z,20.80
2019-02-22T02:41:11.510Z,18.30
2019-02-22T02:43:38.140Z,22.70
2019-02-22T02:46:05.543Z,16.30
2019-02-22T02:48:32.953Z,20.17
2019-02-22T02:51:00.436Z,20.30
2019-02-22T02:53:28.527Z,16.73
2019-02-22T02:55:55.920Z,19.40
2019-02-22T02:58:23.490Z,18.30
2019-02-22T03:00:50.893Z,19.20
2019-02-22T03:03:18.287Z,15.60
2019-02-22T03:06:02.826Z,12.50
2019-02-22T03:08:33.405Z,22.53
2019-02-22T03:11:00.837Z,22.20
2019-02-22T03:13:28.423Z,15.57
2019-02-22T03:15:55.827Z,18.73
2019-02-22T03:18:23.207Z,15.40
2019-02-22T03:20:50.647Z,17.77
2019-02-22T03:23:18.051Z,16.20
2019-02-22T03:25:45.533Z,20.20
2019-02-22T03:28:13.322Z,21.80
2019-02-22T03:30:40.701Z,24.10
2019-02-22T03:33:08.080Z,19.90
2019-02-22T03:35:35.535Z,20.63
2019-02-22T03:38:05.699Z,24.43
2019-02-22T03:40:32.118Z,23.13
2019-02-22T03:42:59.563Z,17.57
2019-02-22T03:45:26.976Z,16.33
2019-02-22T03:47:54.388Z,21.57
2019-02-22T03:50:22.011Z,25.30
2019-02-22T03:52:52.840Z,18.10
2019-02-22T03:55:20.220Z,18.93
2019-02-22T03:57:48.071Z,23.50
2019-02-22T04:00:15.460Z,17.37
2019-02-22T04:02:42.865Z,20.47
2019-02-22T04:05:10.295Z,18.83
2019-02-22T04:07:37.689Z,20.80
2019-02-22T04:10:05.628Z,30.93
2019-02-22T04:12:33.062Z,27.90
2019-02-22T04:15:00.485Z,22.13
2019-02-22T04:17:27.854Z,18.80
2019-02-22T04:19:55.291Z,24.30
2019-02-22T04:22:22.701Z,21.57
2019-02-22T04:24:50.364Z,17.80
2019-02-22T04:27:18.101Z,20.40
2019-02-22T04:29:45.494Z,21.47
2019-02-22T04:32:12.977Z,16.57
2019-02-22T04:34:40.438Z,17.47
2019-02-22T04:37:07.852Z,13.57
2019-02-22T04:39:35.253Z,17.70
2019-02-22T04:42:02.724Z,21.27
2019-02-22T04:44:30.140Z,19.27
2019-02-22T04:46:57.545Z,16.90
2019-02-22T04:49:25.507Z,18.73
2019-02-22T04:51:52.914Z,19.23
2019-02-22T04:54:20.320Z,20.40
2019-02-22T04:56:47.779Z,17.50
2019-02-22T04:59:15.175Z,16.80
2019-02-22T05:01:42.577Z,17.70
2019-02-22T05:04:10.035Z,22.67
2019-02-22T05:06:37.443Z,22.50
2019-02-22T05:09:04.867Z,23.87
2019-02-22T05:11:32.314Z,20.30
2019-02-22T05:13:59.703Z,16.50
2019-02-22T05:16:27.103Z,21.43
2019-02-22T05:18:54.547Z,18.47
2019-02-22T05:21:21.948Z,21.30
2019-02-22T05:23:49.360Z,22.07
2019-02-22T05:26:16.790Z,20.93
2019-02-22T05:28:44.995Z,22.77
2019-02-22T05:31:12.394Z,20.90
2019-02-22T05:33:39.819Z,21.47
2019-02-22T05:36:07.384Z,20.97
2019-02-22T05:38:34.829Z,11.60
2019-02-22T05:41:02.271Z,19.50
2019-02-22T05:43:29.664Z,16.03
2019-02-22T05:45:57.121Z,17.40
2019-02-22T05:48:25.549Z,16.47
2019-02-22T05:50:53.124Z,20.43
2019-02-22T05:53:20.531Z,20.23
2019-02-22T05:55:47.967Z,18.17
2019-02-22T05:58:15.378Z,13.33
2019-02-22T06:00:42.799Z,20.33
2019-02-22T06:03:10.293Z,15.80
2019-02-22T06:05:37.695Z,15.93
2019-02-22T06:08:05.095Z,15.30
2019-02-22T06:10:32.973Z,12.80
2019-02-22T06:13:00.381Z,16.33
2019-02-22T06:15:27.820Z,13.97
2019-02-22T06:17:55.270Z,11.77
2019-02-22T06:20:22.669Z,15.33
2019-02-22T06:22:50.082Z,14.70
2019-02-22T06:25:17.847Z,14.50
2019-02-22T06:27:45.464Z,13.90
2019-02-22T06:30:12.876Z,11.13
2019-02-22T06:32:42.342Z,11.90
2019-02-22T06:35:09.519Z,12.20
2019-02-22T06:37:36.929Z,10.83
2019-02-22T06:40:04.846Z,12.40
2019-02-22T06:42:32.258Z,10.83
2019-02-22T06:44:59.648Z,12.00
2019-02-22T06:47:27.082Z,14.00
2019-02-22T06:49:54.493Z,13.53
2019-02-22T06:52:21.916Z,15.50
2019-02-22T06:54:49.487Z,13.67
2019-02-22T06:57:16.889Z,12.87
2019-02-22T06:59:44.285Z,15.50
2019-02-22T07:02:13.575Z,13.50
2019-02-22T07:04:41.022Z,13.73
2019-02-22T07:07:08.439Z,13.47
2019-02-22T07:09:35.895Z,25.73
2019-02-22T07:12:26.964Z,14.30
2019-02-22T07:14:54.620Z,14.20
2019-02-22T07:17:22.036Z,13.27
2019-02-22T07:19:49.447Z,13.90
2019-02-22T07:22:17.112Z,15.43
2019-02-22T07:24:44.502Z,15.60
2019-02-22T07:27:12.313Z,14.87
2019-02-22T07:29:41.138Z,34.50
2019-02-22T07:32:08.541Z,14.90
2019-02-22T07:34:35.956Z,11.83
2019-02-22T07:37:03.400Z,13.53
2019-02-22T07:39:30.906Z,12.90
2019-02-22T07:41:58.333Z,20.87
2019-02-22T07:44:25.788Z,16.13
2019-02-22T07:46:53.207Z,15.07
2019-02-22T07:49:25.261Z,12.00
2019-02-22T07:51:52.727Z,20.03
2019-02-22T07:54:20.124Z,18.23
2019-02-22T07:56:47.541Z,17.33
2019-02-22T07:59:15.087Z,15.93
2019-02-22T08:01:47.326Z,16.77
2019-02-22T08:04:11.708Z,14.47
2019-02-22T08:06:39.317Z,14.17
2019-02-22T08:09:06.733Z,20.30
2019-02-22T08:11:34.132Z,16.70
2019-02-22T08:14:01.591Z,22.53
2019-02-22T08:16:29.005Z,20.63
2019-02-22T08:19:01.504Z,16.80
2019-02-22T08:21:25.647Z,16.20
2019-02-22T08:23:53.069Z,17.20
2019-02-22T08:26:20.877Z,19.23
2019-02-22T08:28:48.826Z,18.50
2019-02-22T08:31:16.350Z,19.03
2019-02-22T08:33:43.747Z,18.30
2019-02-22T08:36:11.209Z,20.03
2019-02-22T08:38:38.592Z,19.87
2019-02-22T08:41:07.046Z,18.40
2019-02-22T08:43:35.031Z,18.40
2019-02-22T08:46:02.654Z,19.97
2019-02-22T08:48:30.052Z,21.57
2019-02-22T08:50:57.460Z,20.23
2019-02-22T08:53:24.855Z,17.93
2019-02-22T08:55:52.277Z,18.10
2019-02-22T08:58:19.908Z,19.03
2019-02-22T09:00:47.375Z,17.50
2019-02-22T09:03:14.792Z,18.63
2019-02-22T09:05:42.228Z,17.03
2019-02-22T09:08:09.663Z,18.17
2019-02-22T09:10:37.094Z,19.57
2019-02-22T09:13:04.558Z,22.60
2019-02-22T09:15:31.976Z,22.00
2019-02-22T09:17:59.356Z,23.33
2019-02-22T09:20:26.805Z,23.53
2019-02-22T09:22:54.194Z,25.13
2019-02-22T09:25:21.925Z,22.57
2019-02-22T09:27:49.610Z,22.93
2019-02-22T09:30:17.146Z,22.73
2019-02-22T09:32:44.559Z,24.00
2019-02-22T09:35:12.216Z,21.50
2019-02-22T09:37:39.617Z,22.93
2019-02-22T09:40:08.639Z,22.27
2019-02-22T09:42:36.083Z,23.43
2019-02-22T09:45:03.816Z,23.37
2019-02-22T09:47:31.225Z,23.87
2019-02-22T09:49:58.764Z,24.20
2019-02-22T09:52:26.174Z,22.33
2019-02-22T09:54:53.621Z,25.50
2019-02-22T09:57:21.252Z,24.60
2019-02-22T09:59:48.653Z,23.20
2019-02-22T10:02:16.055Z,23.60
2019-02-22T10:04:54.259Z,25.13
2019-02-22T10:07:12.826Z,22.53
2019-02-22T10:09:40.251Z,26.37
2019-02-22T10:12:07.722Z,23.13
2019-02-22T10:14:35.115Z,25.10
2019-02-22T10:17:02.511Z,25.07
2019-02-22T10:19:29.984Z,24.90
2019-02-22T10:21:57.760Z,27.10
2019-02-22T10:24:25.287Z,25.83
2019-02-22T10:26:52.956Z,25.67
2019-02-22T10:29:20.731Z,23.77
2019-02-22T10:31:48.136Z,22.53
2019-02-22T10:34:15.636Z,24.70
2019-02-22T10:36:45.363Z,27.23
2019-02-22T10:39:12.249Z,24.93
2019-02-22T10:41:39.879Z,23.03
2019-02-22T10:44:17.087Z,23.47
2019-02-22T10:46:36.495Z,25.27
2019-02-22T10:49:03.935Z,24.00
2019-02-22T10:51:33.861Z,27.90
2019-02-22T10:54:00.570Z,22.30
2019-02-22T10:56:28.487Z,23.13
2019-02-22T10:58:56.081Z,22.83
2019-02-22T11:01:23.475Z,21.73
2019-02-22T11:03:50.908Z,22.53
2019-02-22T11:06:18.318Z,21.57
2019-02-22T11:08:45.807Z,22.20
2019-02-22T11:11:13.262Z,21.60
2019-02-22T11:13:40.668Z,20.40
2019-02-22T11:16:08.068Z,18.37
2019-02-22T11:18:35.805Z,21.20
2019-02-22T11:21:03.221Z,21.40
2019-02-22T11:23:30.637Z,19.87
2019-02-22T11:25:58.099Z,14.40
2019-02-22T11:28:25.875Z,15.83
2019-02-22T11:30:53.265Z,13.93
2019-02-22T11:33:20.744Z,15.00
2019-02-22T11:35:48.508Z,16.37
2019-02-22T11:38:17.851Z,16.93
2019-02-22T11:40:45.183Z,15.40
2019-02-22T11:43:12.636Z,16.10
2019-02-22T11:45:39.988Z,16.43
2019-02-22T11:48:09.376Z,17.30
2019-02-22T11:50:36.649Z,24.63
2019-02-22T11:53:04.060Z,21.13
2019-02-22T11:55:31.455Z,20.90
2019-02-22T11:57:59.007Z,21.00
2019-02-22T12:00:29.397Z,21.37
2019-02-22T12:02:56.877Z,19.27
2019-02-22T12:05:24.582Z,19.77
2019-02-22T12:07:51.975Z,15.13
2019-02-22T12:10:19.468Z,13.80
2019-02-22T12:12:46.886Z,10.20
2019-02-22T12:15:14.285Z,10.50
2019-02-22T12:17:41.961Z,11.33
2019-02-22T12:20:09.481Z,11.33
2019-02-22T12:22:36.928Z,8.80
2019-02-22T12:25:04.980Z,9.63
2019-02-22T12:27:32.874Z,9.37
2019-02-22T12:30:00.307Z,8.83
2019-02-22T12:32:27.748Z,10.50
2019-02-22T12:34:55.155Z,9.33
2019-02-22T12:37:22.557Z,10.40
2019-02-22T12:39:50.140Z,9.23
2019-02-22T12:42:17.548Z,10.87
2019-02-22T12:44:44.985Z,13.70
2019-02-22T12:47:12.439Z,17.30
2019-02-22T12:49:40.367Z,15.60
2019-02-22T12:52:07.876Z,16.83
2019-02-22T12:54:37.433Z,15.97
2019-02-22T12:57:04.763Z,14.83
2019-02-22T12:59:32.210Z,15.00
2019-02-22T13:01:59.663Z,13.43
2019-02-22T13:04:27.076Z,14.80
2019-02-22T13:06:54.485Z,15.13
2019-02-22T13:09:21.949Z,15.37
2019-02-22T13:11:49.363Z,15.37
2019-02-22T13:14:16.776Z,16.20
2019-02-22T13:16:44.632Z,16.83
2019-02-22T13:19:12.056Z,15.63
2019-02-22T13:21:39.471Z,15.53
2019-02-22T13:24:06.936Z,16.43
2019-02-22T13:26:35.046Z,16.30
2019-02-22T13:29:04.900Z,16.10
2019-02-22T13:31:32.107Z,16.30
2019-02-22T13:33:59.668Z,14.83
2019-02-22T13:36:27.173Z,14.63
2019-02-22T13:38:54.824Z,16.00
2019-02-22T13:41:22.127Z,17.07
2019-02-22T13:43:49.630Z,16.80
2019-02-22T13:46:18.936Z,16.30
2019-02-22T13:48:46.373Z,16.87
2019-02-22T13:51:16.316Z,17.50
2019-02-22T13:53:43.752Z,17.70
2019-02-22T13:56:11.250Z,15.23
2019-02-22T13:58:40.643Z,15.00
2019-02-22T14:01:08.373Z,13.07
2019-02-22T14:03:35.780Z,13.40
2019-02-22T14:06:03.540Z,17.13
2019-02-22T14:08:31.371Z,17.23
2019-02-22T14:10:58.880Z,17.00
2019-02-22T14:13:26.279Z,18.97
2019-02-22T14:15:53.860Z,17.87
2019-02-22T14:18:21.263Z,19.30
2019-02-22T14:20:48.679Z,17.87
2019-02-22T14:23:17.320Z,21.90
2019-02-22T14:25:44.759Z,22.10
2019-02-22T14:28:12.575Z,19.60
2019-02-22T14:30:39.981Z,17.47
2019-02-22T14:33:07.380Z,19.10
2019-02-22T14:35:36.671Z,18.40
2019-02-22T14:38:04.347Z,20.63
2019-02-22T14:40:31.752Z,22.83
2019-02-22T14:42:59.205Z,18.10
2019-02-22T14:45:26.616Z,17.93
2019-02-22T14:47:54.053Z,17.87
2019-02-22T14:50:23.260Z,18.17
2019-02-22T14:52:50.727Z,21.27
2019-02-22T14:55:18.134Z,16.03
2019-02-22T14:57:46.251Z,13.27
2019-02-22T15:00:15.268Z,14.43
2019-02-22T15:02:42.727Z,14.90
2019-02-22T15:05:11.058Z,17.80
2019-02-22T15:07:38.465Z,18.30
2019-02-22T15:10:06.452Z,17.43
2019-02-22T15:12:33.976Z,18.00
2019-02-22T15:15:01.401Z,14.80
2019-02-22T15:17:32.611Z,16.07
2019-02-22T15:20:00.485Z,17.20
2019-02-22T15:22:27.919Z,19.30
2019-02-22T15:24:55.346Z,17.43
2019-02-22T15:27:22.939Z,16.10
2019-02-22T15:29:50.603Z,16.70
2019-02-22T15:32:18.290Z,11.53
2019-02-22T15:34:45.792Z,13.57
2019-02-22T15:37:13.204Z,17.60
2019-02-22T15:39:40.615Z,14.13
2019-02-22T15:42:08.058Z,13.83
2019-02-22T15:44:35.668Z,16.73
2019-02-22T15:47:11.481Z,14.80
2019-02-22T15:49:32.322Z,50.00
2019-02-22T15:52:00.836Z,12.90
2019-02-22T15:54:29.376Z,12.30
2019-02-22T15:56:57.006Z,10.60
2019-02-22T15:59:24.625Z,23.20
2019-02-22T16:01:55.270Z,12.80
2019-02-22T16:04:39.458Z,17.93
2019-02-22T16:07:06.879Z,13.47
2019-02-22T16:09:35.999Z,19.60
2019-02-22T16:12:03.580Z,10.93
2019-02-22T16:14:31.244Z,12.90
2019-02-22T16:16:58.644Z,11.77
2019-02-22T16:19:26.099Z,13.20
2019-02-22T16:21:53.539Z,13.60
2019-02-22T16:24:20.959Z,13.57
2019-02-22T16:26:50.189Z,20.80
2019-02-22T16:29:17.764Z,15.83
2019-02-22T16:31:45.670Z,12.17
2019-02-22T16:34:13.111Z,13.70
2019-02-22T16:36:40.512Z,11.77
2019-02-22T16:39:07.908Z,12.63
2019-02-22T16:41:35.363Z,14.57
2019-02-22T16:44:02.767Z,13.73
2019-02-22T16:46:34.969Z,9.97
2019-02-22T16:48:59.532Z,10.40
2019-02-22T16:51:26.940Z,9.57
2019-02-22T16:53:54.367Z,11.90
2019-02-22T16:56:23.753Z,8.90
2019-02-22T16:58:51.025Z,11.43
2019-02-22T17:01:18.432Z,12.47
2019-02-22T17:03:46.131Z,13.30
2019-02-22T17:06:13.548Z,11.10
2019-02-22T17:08:40.957Z,9.43
2019-02-22T17:11:08.399Z,11.60
2019-02-22T17:13:35.842Z,10.43
2019-02-22T17:16:03.228Z,9.40
2019-02-22T17:18:30.783Z,11.87
2019-02-22T17:20:58.213Z,8.67
2019-02-22T17:23:25.612Z,10.80
2019-02-22T17:25:53.278Z,8.10
2019-02-22T17:28:20.852Z,9.00
2019-02-22T17:30:48.567Z,11.63
2019-02-22T17:33:16.343Z,18.53
2019-02-22T17:35:43.767Z,16.40
2019-02-22T17:38:11.203Z,15.80
2019-02-22T17:40:38.724Z,15.97
2019-02-22T17:43:06.133Z,13.57
2019-02-22T17:45:34.735Z,13.00
2019-02-22T17:48:02.799Z,12.47
2019-02-22T17:50:30.312Z,20.77
2019-02-22T17:52:57.718Z,16.37
2019-02-22T17:55:25.191Z,18.93
2019-02-22T17:57:52.726Z,19.03
2019-02-22T18:00:20.740Z,15.93
2019-02-22T18:02:50.237Z,16.33
2019-02-22T18:05:17.630Z,16.67
2019-02-22T18:07:45.079Z,14.23
2019-02-22T18:10:12.513Z,16.90
2019-02-22T18:12:39.921Z,17.27
2019-02-22T18:15:07.891Z,15.20
2019-02-22T18:17:35.510Z,17.33
2019-02-22T18:20:03.401Z,15.03
2019-02-22T18:22:30.868Z,13.57
2019-02-22T18:24:58.407Z,15.77
2019-02-22T18:27:25.831Z,16.63
2019-02-22T18:29:53.455Z,12.60
2019-02-22T18:32:21.528Z,12.93
2019-02-22T18:34:48.941Z,12.93
2019-02-22T18:37:16.396Z,13.20
2019-02-22T18:39:43.851Z,14.53
2019-02-22T18:42:11.284Z,15.00
2019-02-22T18:44:38.955Z,15.07
2019-02-22T18:47:06.413Z,13.73
2019-02-22T18:49:33.831Z,15.13
2019-02-22T18:52:01.251Z,14.83
2019-02-22T18:54:28.726Z,13.40
2019-02-22T18:56:56.148Z,16.77
2019-02-22T18:59:23.555Z,15.33
2019-02-22T19:01:51.044Z,13.67
2019-02-22T19:04:18.452Z,15.17
2019-02-22T19:06:45.859Z,13.60
2019-02-22T19:09:13.551Z,14.87
2019-02-22T19:11:40.979Z,14.40
2019-02-22T19:14:08.389Z,13.73
2019-02-22T19:16:35.931Z,14.50
2019-02-22T19:19:03.430Z,13.13
2019-02-22T19:21:30.907Z,13.93
2019-02-22T19:23:58.465Z,13.00
2019-02-22T19:26:25.887Z,12.57
2019-02-22T19:28:53.563Z,11.40
2019-02-22T19:31:21.315Z,10.70
2019-02-22T19:33:49.916Z,9.67
2019-02-22T19:36:17.407Z,10.77
2019-02-22T19:38:45.047Z,9.23
2019-02-22T19:41:12.462Z,9.80
2019-02-22T19:43:39.898Z,9.70
2019-02-22T19:46:07.350Z,11.40
2019-02-22T19:48:34.765Z,10.70
2019-02-22T19:51:02.180Z,10.40
2019-02-22T19:53:29.746Z,10.67
2019-02-22T19:55:57.186Z,11.03
2019-02-22T19:58:24.601Z,10.17
2019-02-22T20:00:52.406Z,8.70
2019-02-22T20:03:19.924Z,9.67
2019-02-22T20:05:47.324Z,9.60
2019-02-22T20:08:15.008Z,10.90
2019-02-22T20:10:42.431Z,8.90
2019-02-22T20:13:09.846Z,8.63
2019-02-22T20:15:37.333Z,9.90
2019-02-22T20:18:06.639Z,8.77
2019-02-22T20:20:34.046Z,9.10
2019-02-22T20:23:01.506Z,8.57
2019-02-22T20:25:28.918Z,9.57
2019-02-22T20:27:56.452Z,8.00
2019-02-22T20:30:24.004Z,8.10
2019-02-22T20:32:51.895Z,7.93
2019-02-22T20:35:20.616Z,8.10
2019-02-22T20:37:52.700Z,8.43
2019-02-22T20:40:17.854Z,8.30
2019-02-22T20:42:45.276Z,9.00
2019-02-22T20:45:12.861Z,7.90
2019-02-22T20:47:40.312Z,8.63
2019-02-22T20:50:08.854Z,8.67
2019-02-22T20:52:36.292Z,8.93
2019-02-22T20:55:03.734Z,9.20
2019-02-22T20:57:31.155Z,9.17
2019-02-22T20:59:58.635Z,9.37
2019-02-22T21:02:26.041Z,8.37
2019-02-22T21:04:53.447Z,8.60
2019-02-22T21:07:20.907Z,9.53
2019-02-22T21:09:48.303Z,9.70
2019-02-22T21:12:15.775Z,9.20
2019-02-22T21:14:43.459Z,10.10
2019-02-22T21:17:11.092Z,9.87
2019-02-22T21:19:38.491Z,9.87
2019-02-22T21:22:06.126Z,10.43
2019-02-22T21:24:33.570Z,9.90
2019-02-22T21:27:00.992Z,9.97
2019-02-22T21:29:28.478Z,11.10
2019-02-22T21:31:56.135Z,9.90
2019-02-22T21:34:25.358Z,10.53
2019-02-22T21:36:52.828Z,10.20
2019-02-22T21:39:20.259Z,10.30
2019-02-22T21:41:47.675Z,9.57
2019-02-22T21:44:15.238Z,10.20
2019-02-22T21:46:42.675Z,10.00
2019-02-22T21:49:10.082Z,9.97
2019-02-22T21:51:37.622Z,11.57
2019-02-22T21:54:05.030Z,10.83
2019-02-22T21:56:32.447Z,9.30
2019-02-22T21:58:59.996Z,10.30
2019-02-22T22:01:27.413Z,13.20
2019-02-22T22:03:54.836Z,11.27
2019-02-22T22:06:22.497Z,10.80
2019-02-22T22:08:49.908Z,10.97
2019-02-22T22:11:17.340Z,11.93
2019-02-22T22:13:46.490Z,10.77
2019-02-22T22:16:14.082Z,11.87
2019-02-22T22:18:43.271Z,10.80
2019-02-22T22:21:10.959Z,12.87
2019-02-22T22:23:38.363Z,12.00
2019-02-22T22:26:05.771Z,11.70
2019-02-22T22:28:33.206Z,12.40
2019-02-22T22:31:00.932Z,12.47
2019-02-22T22:33:28.834Z,11.57
2019-02-22T22:35:56.287Z,11.57
2019-02-22T22:38:24.808Z,11.60
2019-02-22T22:40:52.232Z,11.77
2019-02-22T22:43:19.707Z,11.77
2019-02-22T22:45:47.025Z,11.20
2019-02-22T22:48:14.447Z,11.03
2019-02-22T22:50:42.134Z,12.13
2019-02-22T22:53:09.559Z,12.80
2019-02-22T22:55:36.984Z,10.60
2019-02-22T22:58:04.575Z,12.13
2019-02-22T23:00:58.799Z,11.60
2019-02-22T23:03:26.248Z,12.53
2019-02-22T23:05:53.678Z,11.27
2019-02-22T23:08:21.088Z,11.57
2019-02-22T23:10:48.672Z,11.13
2019-02-22T23:13:16.076Z,11.70
2019-02-22T23:15:44.831Z,10.97
2019-02-22T23:18:12.303Z,10.40
2019-02-22T23:20:39.727Z,10.70
2019-02-22T23:23:07.128Z,11.13
2019-02-22T23:25:34.604Z,10.73
2019-02-22T23:28:02.010Z,11.73
2019-02-22T23:30:29.807Z,12.30
2019-02-22T23:32:57.261Z,12.60
2019-02-22T23:35:25.365Z,11.67
2019-02-22T23:37:52.796Z,12.07
2019-02-22T23:40:20.276Z,12.50
2019-02-22T23:42:47.691Z,12.03
2019-02-22T23:45:15.113Z,11.60
2019-02-22T23:47:42.690Z,11.90
2019-02-22T23:50:10.184Z,13.70
2019-02-22T23:52:37.583Z,12.90
2019-02-22T23:55:05.020Z,13.30
2019-02-22T23:57:32.439Z,13.33
2019-02-22T23:59:59.836Z,13.10
